sensor_id;sensor_type;location;lat;lon;timestamp;P1;durP1;ratioP1;P2;durP2;ratioP2
45676;SDS011;31390;51.186;6.830;2022-08-19T00:01:44;12.93;;;9.32;;
45676;SDS011;31390;51.186;6.830;2022-08-19T00:04:21;9.68;;;8.77;;
45676;SDS011;31390;51.186;6.830;2022-08-19T00:06:47;10.05;;;8.98;;
45676;SDS011;31390;51.186;6.830;2022-08-19T00:09:15;9.20;;;8.38;;
45676;SDS011;31390;51.186;6.830;2022-08-19T00:11:43;8.57;;;7.82;;
45676;SDS011;31390;51.186;6.830;2022-08-19T00:14:10;10.50;;;9.38;;
45676;SDS011;31390;51.186;6.830;2022-08-19T00:16:37;8.90;;;8.10;;
45676;SDS011;31390;51.186;6.830;2022-08-19T00:19:05;8.93;;;8.23;;
45676;SDS011;31390;51.186;6.830;2022-08-19T00:21:32;9.65;;;8.70;;
45676;SDS011;31390;51.186;6.830;2022-08-19T00:23:58;11.32;;;9.50;;
45676;SDS011;31390;51.186;6.830;2022-08-19T00:26:26;10.18;;;9.27;;
45676;SDS011;31390;51.186;6.830;2022-08-19T00:28:53;10.32;;;9.13;;
45676;SDS011;31390;51.186;6.830;2022-08-19T00:31:20;9.77;;;8.93;;
45676;SDS011;31390;51.186;6.830;2022-08-19T00:33:47;9.90;;;9.00;;
45676;SDS011;31390;51.186;6.830;2022-08-19T00:36:16;9.07;;;8.27;;
45676;SDS011;31390;51.186;6.830;2022-08-19T00:38:43;9.60;;;8.60;;
45676;SDS011;31390;51.186;6.830;2022-08-19T00:41:14;10.07;;;9.07;;
45676;SDS011;31390;51.186;6.830;2022-08-19T00:43:41;10.05;;;9.23;;
45676;SDS011;31390;51.186;6.830;2022-08-19T00:46:07;9.65;;;8.77;;
45676;SDS011;31390;51.186;6.830;2022-08-19T00:48:34;10.15;;;9.18;;
45676;SDS011;31390;51.186;6.830;2022-08-19T00:51:02;9.48;;;8.57;;
45676;SDS011;31390;51.186;6.830;2022-08-19T00:53:29;9.95;;;8.63;;
45676;SDS011;31390;51.186;6.830;2022-08-19T00:55:58;10.95;;;9.80;;
45676;SDS011;31390;51.186;6.830;2022-08-19T00:58:27;9.55;;;8.68;;
45676;SDS011;31390;51.186;6.830;2022-08-19T01:00:55;10.23;;;9.18;;
45676;SDS011;31390;51.186;6.830;2022-08-19T01:03:22;9.38;;;8.52;;
45676;SDS011;31390;51.186;6.830;2022-08-19T01:05:49;9.98;;;9.07;;
45676;SDS011;31390;51.186;6.830;2022-08-19T01:08:17;10.18;;;9.18;;
45676;SDS011;31390;51.186;6.830;2022-08-19T01:10:48;9.98;;;9.07;;
45676;SDS011;31390;51.186;6.830;2022-08-19T01:13:17;10.13;;;9.32;;
45676;SDS011;31390;51.186;6.830;2022-08-19T01:15:46;10.18;;;9.27;;
45676;SDS011;31390;51.186;6.830;2022-08-19T01:18:15;10.35;;;9.45;;
45676;SDS011;31390;51.186;6.830;2022-08-19T01:20:42;9.82;;;9.02;;
45676;SDS011;31390;51.186;6.830;2022-08-19T01:23:09;10.30;;;9.40;;
45676;SDS011;31390;51.186;6.830;2022-08-19T01:25:39;9.48;;;8.57;;
45676;SDS011;31390;51.186;6.830;2022-08-19T01:28:07;10.30;;;9.32;;
45676;SDS011;31390;51.186;6.830;2022-08-19T01:30:36;10.05;;;9.15;;
45676;SDS011;31390;51.186;6.830;2022-08-19T01:33:03;10.82;;;9.73;;
45676;SDS011;31390;51.186;6.830;2022-08-19T01:35:32;12.05;;;9.20;;
45676;SDS011;31390;51.186;6.830;2022-08-19T01:38:00;10.23;;;9.27;;
45676;SDS011;31390;51.186;6.830;2022-08-19T01:40:29;9.43;;;8.52;;
45676;SDS011;31390;51.186;6.830;2022-08-19T01:42:56;10.27;;;9.30;;
45676;SDS011;31390;51.186;6.830;2022-08-19T01:45:24;10.20;;;9.30;;
45676;SDS011;31390;51.186;6.830;2022-08-19T01:47:51;11.45;;;9.55;;
45676;SDS011;31390;51.186;6.830;2022-08-19T01:50:28;9.93;;;9.13;;
45676;SDS011;31390;51.186;6.830;2022-08-19T01:52:55;10.50;;;9.50;;
45676;SDS011;31390;51.186;6.830;2022-08-19T01:55:31;11.27;;;10.18;;
45676;SDS011;31390;51.186;6.830;2022-08-19T01:58:00;10.65;;;9.65;;
45676;SDS011;31390;51.186;6.830;2022-08-19T02:00:29;11.30;;;9.90;;
45676;SDS011;31390;51.186;6.830;2022-08-19T02:02:56;9.80;;;8.85;;
45676;SDS011;31390;51.186;6.830;2022-08-19T02:05:23;11.27;;;10.27;;
45676;SDS011;31390;51.186;6.830;2022-08-19T02:07:50;11.65;;;10.52;;
45676;SDS011;31390;51.186;6.830;2022-08-19T02:10:18;11.48;;;10.27;;
45676;SDS011;31390;51.186;6.830;2022-08-19T02:12:45;10.68;;;9.68;;
45676;SDS011;31390;51.186;6.830;2022-08-19T02:15:13;11.40;;;10.30;;
45676;SDS011;31390;51.186;6.830;2022-08-19T02:17:39;11.00;;;9.90;;
45676;SDS011;31390;51.186;6.830;2022-08-19T02:20:06;10.32;;;9.43;;
45676;SDS011;31390;51.186;6.830;2022-08-19T02:22:35;10.90;;;9.85;;
45676;SDS011;31390;51.186;6.830;2022-08-19T02:25:02;15.35;;;9.80;;
45676;SDS011;31390;51.186;6.830;2022-08-19T02:27:31;11.38;;;9.90;;
45676;SDS011;31390;51.186;6.830;2022-08-19T02:29:57;10.43;;;9.48;;
45676;SDS011;31390;51.186;6.830;2022-08-19T02:32:24;11.50;;;9.82;;
45676;SDS011;31390;51.186;6.830;2022-08-19T02:34:50;13.57;;;9.90;;
45676;SDS011;31390;51.186;6.830;2022-08-19T02:37:17;11.07;;;10.02;;
45676;SDS011;31390;51.186;6.830;2022-08-19T02:40:02;11.77;;;10.48;;
45676;SDS011;31390;51.186;6.830;2022-08-19T02:42:37;10.88;;;9.90;;
45676;SDS011;31390;51.186;6.830;2022-08-19T02:45:04;11.95;;;10.10;;
45676;SDS011;31390;51.186;6.830;2022-08-19T02:47:31;10.25;;;9.25;;
45676;SDS011;31390;51.186;6.830;2022-08-19T02:49:58;10.75;;;9.75;;
45676;SDS011;31390;51.186;6.830;2022-08-19T02:52:24;11.20;;;9.93;;
45676;SDS011;31390;51.186;6.830;2022-08-19T02:54:51;11.50;;;10.40;;
45676;SDS011;31390;51.186;6.830;2022-08-19T02:57:18;11.57;;;10.55;;
45676;SDS011;31390;51.186;6.830;2022-08-19T02:59:44;11.25;;;10.10;;
45676;SDS011;31390;51.186;6.830;2022-08-19T03:02:11;11.57;;;10.05;;
45676;SDS011;31390;51.186;6.830;2022-08-19T03:04:37;11.65;;;10.48;;
45676;SDS011;31390;51.186;6.830;2022-08-19T03:07:04;12.32;;;11.32;;
45676;SDS011;31390;51.186;6.830;2022-08-19T03:09:36;11.43;;;10.32;;
45676;SDS011;31390;51.186;6.830;2022-08-19T03:12:04;12.18;;;10.90;;
45676;SDS011;31390;51.186;6.830;2022-08-19T03:14:31;11.98;;;10.88;;
45676;SDS011;31390;51.186;6.830;2022-08-19T03:16:58;11.52;;;10.50;;
45676;SDS011;31390;51.186;6.830;2022-08-19T03:19:25;13.90;;;11.00;;
45676;SDS011;31390;51.186;6.830;2022-08-19T03:21:51;11.30;;;10.10;;
45676;SDS011;31390;51.186;6.830;2022-08-19T03:24:18;12.60;;;10.50;;
45676;SDS011;31390;51.186;6.830;2022-08-19T03:26:46;12.38;;;11.07;;
45676;SDS011;31390;51.186;6.830;2022-08-19T03:29:14;11.45;;;10.32;;
45676;SDS011;31390;51.186;6.830;2022-08-19T03:31:55;11.88;;;10.77;;
45676;SDS011;31390;51.186;6.830;2022-08-19T03:34:26;12.32;;;11.10;;
45676;SDS011;31390;51.186;6.830;2022-08-19T03:36:54;11.30;;;10.40;;
45676;SDS011;31390;51.186;6.830;2022-08-19T03:39:21;11.00;;;10.10;;
45676;SDS011;31390;51.186;6.830;2022-08-19T03:41:48;11.07;;;10.18;;
45676;SDS011;31390;51.186;6.830;2022-08-19T03:44:36;11.23;;;10.23;;
45676;SDS011;31390;51.186;6.830;2022-08-19T03:47:04;12.55;;;11.35;;
45676;SDS011;31390;51.186;6.830;2022-08-19T03:49:31;13.18;;;11.77;;
45676;SDS011;31390;51.186;6.830;2022-08-19T03:51:59;14.35;;;13.00;;
45676;SDS011;31390;51.186;6.830;2022-08-19T03:54:31;14.43;;;12.93;;
45676;SDS011;31390;51.186;6.830;2022-08-19T03:56:57;14.35;;;13.05;;
45676;SDS011;31390;51.186;6.830;2022-08-19T03:59:26;14.98;;;13.48;;
45676;SDS011;31390;51.186;6.830;2022-08-19T04:01:54;18.42;;;15.45;;
45676;SDS011;31390;51.186;6.830;2022-08-19T04:04:21;17.33;;;15.75;;
45676;SDS011;31390;51.186;6.830;2022-08-19T04:06:47;17.15;;;15.63;;
45676;SDS011;31390;51.186;6.830;2022-08-19T04:09:14;19.50;;;17.63;;
45676;SDS011;31390;51.186;6.830;2022-08-19T04:11:46;17.92;;;16.23;;
45676;SDS011;31390;51.186;6.830;2022-08-19T04:14:13;19.33;;;17.58;;
45676;SDS011;31390;51.186;6.830;2022-08-19T04:16:40;19.48;;;17.63;;
45676;SDS011;31390;51.186;6.830;2022-08-19T04:19:08;21.42;;;18.25;;
45676;SDS011;31390;51.186;6.830;2022-08-19T04:21:35;21.80;;;19.60;;
45676;SDS011;31390;51.186;6.830;2022-08-19T04:24:02;24.70;;;22.42;;
45676;SDS011;31390;51.186;6.830;2022-08-19T04:26:30;24.50;;;22.15;;
45676;SDS011;31390;51.186;6.830;2022-08-19T04:29:01;23.58;;;21.42;;
45676;SDS011;31390;51.186;6.830;2022-08-19T04:31:29;23.08;;;20.98;;
45676;SDS011;31390;51.186;6.830;2022-08-19T04:33:57;23.77;;;21.48;;
45676;SDS011;31390;51.186;6.830;2022-08-19T04:36:25;28.02;;;25.17;;
45676;SDS011;31390;51.186;6.830;2022-08-19T04:38:53;28.45;;;25.55;;
45676;SDS011;31390;51.186;6.830;2022-08-19T04:41:20;28.40;;;25.63;;
45676;SDS011;31390;51.186;6.830;2022-08-19T04:44:06;29.35;;;26.40;;
45676;SDS011;31390;51.186;6.830;2022-08-19T04:46:33;29.83;;;26.98;;
45676;SDS011;31390;51.186;6.830;2022-08-19T04:49:16;29.33;;;26.42;;
45676;SDS011;31390;51.186;6.830;2022-08-19T04:51:44;30.60;;;27.58;;
45676;SDS011;31390;51.186;6.830;2022-08-19T04:54:14;32.88;;;29.63;;
45676;SDS011;31390;51.186;6.830;2022-08-19T04:56:51;33.75;;;30.38;;
45676;SDS011;31390;51.186;6.830;2022-08-19T04:59:19;35.50;;;32.10;;
45676;SDS011;31390;51.186;6.830;2022-08-19T05:01:48;39.30;;;35.28;;
45676;SDS011;31390;51.186;6.830;2022-08-19T05:04:17;40.15;;;36.35;;
45676;SDS011;31390;51.186;6.830;2022-08-19T05:06:47;39.53;;;35.55;;
45676;SDS011;31390;51.186;6.830;2022-08-19T05:09:25;39.58;;;35.65;;
45676;SDS011;31390;51.186;6.830;2022-08-19T05:11:54;41.00;;;36.83;;
45676;SDS011;31390;51.186;6.830;2022-08-19T05:14:23;43.63;;;39.22;;
45676;SDS011;31390;51.186;6.830;2022-08-19T05:16:50;40.88;;;36.95;;
45676;SDS011;31390;51.186;6.830;2022-08-19T05:19:36;42.13;;;37.85;;
45676;SDS011;31390;51.186;6.830;2022-08-19T05:22:24;45.35;;;40.67;;
45676;SDS011;31390;51.186;6.830;2022-08-19T05:25:05;44.97;;;40.35;;
45676;SDS011;31390;51.186;6.830;2022-08-19T05:27:39;45.03;;;40.60;;
45676;SDS011;31390;51.186;6.830;2022-08-19T05:30:06;43.80;;;39.30;;
45676;SDS011;31390;51.186;6.830;2022-08-19T05:32:33;43.38;;;39.05;;
45676;SDS011;31390;51.186;6.830;2022-08-19T05:35:00;46.67;;;42.00;;
45676;SDS011;31390;51.186;6.830;2022-08-19T05:37:28;45.50;;;41.20;;
45676;SDS011;31390;51.186;6.830;2022-08-19T05:39:55;46.92;;;42.10;;
45676;SDS011;31390;51.186;6.830;2022-08-19T05:42:22;43.67;;;39.45;;
45676;SDS011;31390;51.186;6.830;2022-08-19T05:44:49;47.88;;;43.05;;
45676;SDS011;31390;51.186;6.830;2022-08-19T05:47:16;44.80;;;40.28;;
45676;SDS011;31390;51.186;6.830;2022-08-19T05:49:43;46.50;;;41.75;;
45676;SDS011;31390;51.186;6.830;2022-08-19T05:52:11;45.33;;;40.70;;
45676;SDS011;31390;51.186;6.830;2022-08-19T05:54:38;46.08;;;41.38;;
45676;SDS011;31390;51.186;6.830;2022-08-19T05:57:17;48.38;;;43.63;;
45676;SDS011;31390;51.186;6.830;2022-08-19T05:59:45;46.72;;;42.03;;
45676;SDS011;31390;51.186;6.830;2022-08-19T06:02:23;47.97;;;43.13;;
45676;SDS011;31390;51.186;6.830;2022-08-19T06:04:51;48.25;;;43.45;;
45676;SDS011;31390;51.186;6.830;2022-08-19T06:07:18;48.78;;;43.83;;
45676;SDS011;31390;51.186;6.830;2022-08-19T06:09:45;47.88;;;43.05;;
45676;SDS011;31390;51.186;6.830;2022-08-19T06:12:26;49.35;;;44.28;;
45676;SDS011;31390;51.186;6.830;2022-08-19T06:14:58;47.47;;;42.47;;
45676;SDS011;31390;51.186;6.830;2022-08-19T06:17:26;48.10;;;42.97;;
45676;SDS011;31390;51.186;6.830;2022-08-19T06:19:57;48.75;;;43.95;;
45676;SDS011;31390;51.186;6.830;2022-08-19T06:22:26;47.25;;;42.28;;
45676;SDS011;31390;51.186;6.830;2022-08-19T06:24:54;51.00;;;45.63;;
45676;SDS011;31390;51.186;6.830;2022-08-19T06:27:22;48.42;;;43.63;;
45676;SDS011;31390;51.186;6.830;2022-08-19T06:29:49;47.60;;;42.80;;
45676;SDS011;31390;51.186;6.830;2022-08-19T06:32:19;50.05;;;44.78;;
45676;SDS011;31390;51.186;6.830;2022-08-19T06:34:49;49.42;;;44.33;;
45676;SDS011;31390;51.186;6.830;2022-08-19T06:37:15;47.95;;;43.15;;
45676;SDS011;31390;51.186;6.830;2022-08-19T06:39:44;48.30;;;43.50;;
45676;SDS011;31390;51.186;6.830;2022-08-19T06:42:11;48.88;;;43.72;;
45676;SDS011;31390;51.186;6.830;2022-08-19T06:44:40;47.55;;;42.72;;
45676;SDS011;31390;51.186;6.830;2022-08-19T06:47:13;48.17;;;43.05;;
45676;SDS011;31390;51.186;6.830;2022-08-19T06:49:57;51.22;;;46.00;;
45676;SDS011;31390;51.186;6.830;2022-08-19T06:52:34;48.30;;;43.45;;
45676;SDS011;31390;51.186;6.830;2022-08-19T06:55:05;49.58;;;44.60;;
45676;SDS011;31390;51.186;6.830;2022-08-19T06:57:32;48.45;;;43.63;;
45676;SDS011;31390;51.186;6.830;2022-08-19T06:59:59;49.30;;;44.30;;
45676;SDS011;31390;51.186;6.830;2022-08-19T07:02:26;48.55;;;43.63;;
45676;SDS011;31390;51.186;6.830;2022-08-19T07:04:53;47.63;;;42.78;;
45676;SDS011;31390;51.186;6.830;2022-08-19T07:07:20;46.10;;;41.50;;
45676;SDS011;31390;51.186;6.830;2022-08-19T07:09:47;48.03;;;43.13;;
45676;SDS011;31390;51.186;6.830;2022-08-19T07:12:26;47.15;;;42.38;;
45676;SDS011;31390;51.186;6.830;2022-08-19T07:14:54;46.13;;;41.45;;
45676;SDS011;31390;51.186;6.830;2022-08-19T07:17:22;45.45;;;40.75;;
45676;SDS011;31390;51.186;6.830;2022-08-19T07:19:50;48.25;;;43.05;;
45676;SDS011;31390;51.186;6.830;2022-08-19T07:22:19;47.15;;;42.45;;
45676;SDS011;31390;51.186;6.830;2022-08-19T07:24:50;45.30;;;40.80;;
45676;SDS011;31390;51.186;6.830;2022-08-19T07:27:17;45.60;;;40.78;;
45676;SDS011;31390;51.186;6.830;2022-08-19T07:29:51;44.53;;;40.15;;
45676;SDS011;31390;51.186;6.830;2022-08-19T07:32:23;46.25;;;40.33;;
45676;SDS011;31390;51.186;6.830;2022-08-19T07:34:52;45.58;;;40.67;;
45676;SDS011;31390;51.186;6.830;2022-08-19T07:37:19;44.13;;;39.42;;
45676;SDS011;31390;51.186;6.830;2022-08-19T07:39:49;45.00;;;40.42;;
45676;SDS011;31390;51.186;6.830;2022-08-19T07:42:18;43.58;;;38.92;;
45676;SDS011;31390;51.186;6.830;2022-08-19T07:44:47;42.88;;;38.45;;
45676;SDS011;31390;51.186;6.830;2022-08-19T07:47:17;41.22;;;37.00;;
45676;SDS011;31390;51.186;6.830;2022-08-19T07:50:07;40.55;;;36.47;;
45676;SDS011;31390;51.186;6.830;2022-08-19T07:52:35;40.95;;;36.80;;
45676;SDS011;31390;51.186;6.830;2022-08-19T07:55:07;41.00;;;36.58;;
45676;SDS011;31390;51.186;6.830;2022-08-19T07:57:54;39.95;;;35.90;;
45676;SDS011;31390;51.186;6.830;2022-08-19T08:00:22;38.35;;;34.28;;
45676;SDS011;31390;51.186;6.830;2022-08-19T08:02:51;38.20;;;34.30;;
45676;SDS011;31390;51.186;6.830;2022-08-19T08:05:22;36.70;;;33.08;;
45676;SDS011;31390;51.186;6.830;2022-08-19T08:08:10;35.97;;;32.15;;
45676;SDS011;31390;51.186;6.830;2022-08-19T08:11:14;35.13;;;31.52;;
45676;SDS011;31390;51.186;6.830;2022-08-19T08:13:47;34.42;;;31.05;;
45676;SDS011;31390;51.186;6.830;2022-08-19T08:16:30;34.15;;;30.80;;
45676;SDS011;31390;51.186;6.830;2022-08-19T08:18:57;32.60;;;29.08;;
45676;SDS011;31390;51.186;6.830;2022-08-19T08:21:25;30.83;;;27.67;;
45676;SDS011;31390;51.186;6.830;2022-08-19T08:23:52;30.77;;;27.67;;
45676;SDS011;31390;51.186;6.830;2022-08-19T08:26:22;32.00;;;28.60;;
45676;SDS011;31390;51.186;6.830;2022-08-19T08:28:50;32.28;;;27.85;;
45676;SDS011;31390;51.186;6.830;2022-08-19T08:31:17;29.85;;;26.75;;
45676;SDS011;31390;51.186;6.830;2022-08-19T08:33:50;33.00;;;29.60;;
45676;SDS011;31390;51.186;6.830;2022-08-19T08:36:18;36.58;;;32.63;;
45676;SDS011;31390;51.186;6.830;2022-08-19T08:38:45;35.22;;;31.13;;
45676;SDS011;31390;51.186;6.830;2022-08-19T08:41:22;40.08;;;35.60;;
45676;SDS011;31390;51.186;6.830;2022-08-19T08:43:54;42.05;;;35.17;;
45676;SDS011;31390;51.186;6.830;2022-08-19T08:46:34;38.63;;;34.53;;
45676;SDS011;31390;51.186;6.830;2022-08-19T08:49:06;39.20;;;34.97;;
45676;SDS011;31390;51.186;6.830;2022-08-19T08:51:46;38.53;;;34.10;;
45676;SDS011;31390;51.186;6.830;2022-08-19T08:54:25;39.28;;;34.10;;
45676;SDS011;31390;51.186;6.830;2022-08-19T08:56:56;38.63;;;34.30;;
45676;SDS011;31390;51.186;6.830;2022-08-19T08:59:25;42.78;;;33.88;;
45676;SDS011;31390;51.186;6.830;2022-08-19T09:01:53;37.28;;;32.50;;
45676;SDS011;31390;51.186;6.830;2022-08-19T09:04:21;35.88;;;31.13;;
45676;SDS011;31390;51.186;6.830;2022-08-19T09:09:55;34.15;;;30.50;;
45676;SDS011;31390;51.186;6.830;2022-08-19T09:12:38;32.13;;;28.85;;
45676;SDS011;31390;51.186;6.830;2022-08-19T09:15:12;32.03;;;28.55;;
45676;SDS011;31390;51.186;6.830;2022-08-19T09:17:39;32.78;;;29.23;;
45676;SDS011;31390;51.186;6.830;2022-08-19T09:22:41;29.40;;;25.55;;
45676;SDS011;31390;51.186;6.830;2022-08-19T09:25:12;33.83;;;30.25;;
45676;SDS011;31390;51.186;6.830;2022-08-19T09:27:39;33.33;;;29.73;;
45676;SDS011;31390;51.186;6.830;2022-08-19T09:30:13;37.00;;;31.05;;
45676;SDS011;31390;51.186;6.830;2022-08-19T09:32:42;29.45;;;26.27;;
45676;SDS011;31390;51.186;6.830;2022-08-19T09:35:18;25.88;;;21.13;;
45676;SDS011;31390;51.186;6.830;2022-08-19T09:37:46;21.60;;;19.35;;
45676;SDS011;31390;51.186;6.830;2022-08-19T09:40:16;20.85;;;18.75;;
45676;SDS011;31390;51.186;6.830;2022-08-19T09:42:43;21.33;;;18.40;;
45676;SDS011;31390;51.186;6.830;2022-08-19T09:45:17;26.65;;;20.67;;
45676;SDS011;31390;51.186;6.830;2022-08-19T09:47:48;23.98;;;21.48;;
45676;SDS011;31390;51.186;6.830;2022-08-19T09:50:20;25.20;;;22.52;;
45676;SDS011;31390;51.186;6.830;2022-08-19T09:52:47;26.10;;;23.40;;
45676;SDS011;31390;51.186;6.830;2022-08-19T09:55:25;24.17;;;21.63;;
45676;SDS011;31390;51.186;6.830;2022-08-19T09:58:03;24.67;;;22.15;;
45676;SDS011;31390;51.186;6.830;2022-08-19T10:00:32;23.20;;;20.75;;
45676;SDS011;31390;51.186;6.830;2022-08-19T10:03:02;23.65;;;20.13;;
45676;SDS011;31390;51.186;6.830;2022-08-19T10:05:32;21.42;;;19.00;;
45676;SDS011;31390;51.186;6.830;2022-08-19T10:08:21;23.63;;;19.33;;
45676;SDS011;31390;51.186;6.830;2022-08-19T10:10:53;18.73;;;16.75;;
45676;SDS011;31390;51.186;6.830;2022-08-19T10:13:25;18.75;;;16.83;;
45676;SDS011;31390;51.186;6.830;2022-08-19T10:15:54;17.35;;;15.60;;
45676;SDS011;31390;51.186;6.830;2022-08-19T10:18:22;17.40;;;15.77;;
45676;SDS011;31390;51.186;6.830;2022-08-19T10:21:02;16.15;;;14.55;;
45676;SDS011;31390;51.186;6.830;2022-08-19T10:23:30;19.90;;;16.50;;
45676;SDS011;31390;51.186;6.830;2022-08-19T10:26:03;16.85;;;14.57;;
45676;SDS011;31390;51.186;6.830;2022-08-19T10:28:38;17.65;;;14.60;;
45676;SDS011;31390;51.186;6.830;2022-08-19T10:31:14;15.98;;;14.35;;
45676;SDS011;31390;51.186;6.830;2022-08-19T10:33:45;15.73;;;14.23;;
45676;SDS011;31390;51.186;6.830;2022-08-19T10:36:20;17.80;;;12.13;;
45676;SDS011;31390;51.186;6.830;2022-08-19T10:38:49;18.23;;;16.55;;
45676;SDS011;31390;51.186;6.830;2022-08-19T10:41:24;16.10;;;14.50;;
45676;SDS011;31390;51.186;6.830;2022-08-19T10:43:55;13.85;;;11.85;;
45676;SDS011;31390;51.186;6.830;2022-08-19T10:46:29;16.80;;;13.25;;
45676;SDS011;31390;51.186;6.830;2022-08-19T10:49:00;15.25;;;13.43;;
45676;SDS011;31390;51.186;6.830;2022-08-19T10:51:27;20.83;;;14.48;;
45676;SDS011;31390;51.186;6.830;2022-08-19T10:54:15;13.05;;;11.80;;
45676;SDS011;31390;51.186;6.830;2022-08-19T10:56:56;13.05;;;11.70;;
45676;SDS011;31390;51.186;6.830;2022-08-19T10:59:26;13.70;;;12.18;;
45676;SDS011;31390;51.186;6.830;2022-08-19T11:02:05;12.77;;;11.55;;
45676;SDS011;31390;51.186;6.830;2022-08-19T11:04:35;13.65;;;11.65;;
45676;SDS011;31390;51.186;6.830;2022-08-19T11:07:02;14.70;;;12.18;;
45676;SDS011;31390;51.186;6.830;2022-08-19T11:09:31;13.48;;;11.10;;
45676;SDS011;31390;51.186;6.830;2022-08-19T11:12:06;12.88;;;11.55;;
45676;SDS011;31390;51.186;6.830;2022-08-19T11:14:34;13.43;;;12.05;;
45676;SDS011;31390;51.186;6.830;2022-08-19T11:17:01;12.10;;;10.80;;
45676;SDS011;31390;51.186;6.830;2022-08-19T11:19:28;14.57;;;12.80;;
45676;SDS011;31390;51.186;6.830;2022-08-19T11:21:58;13.80;;;12.40;;
45676;SDS011;31390;51.186;6.830;2022-08-19T11:24:30;15.35;;;12.55;;
45676;SDS011;31390;51.186;6.830;2022-08-19T11:27:15;14.43;;;11.52;;
45676;SDS011;31390;51.186;6.830;2022-08-19T11:29:44;13.95;;;12.55;;
45676;SDS011;31390;51.186;6.830;2022-08-19T11:32:11;14.75;;;11.77;;
45676;SDS011;31390;51.186;6.830;2022-08-19T11:34:41;14.00;;;12.55;;
45676;SDS011;31390;51.186;6.830;2022-08-19T11:37:07;19.05;;;10.57;;
45676;SDS011;31390;51.186;6.830;2022-08-19T11:39:35;11.13;;;10.02;;
45676;SDS011;31390;51.186;6.830;2022-08-19T11:42:03;11.32;;;10.18;;
45676;SDS011;31390;51.186;6.830;2022-08-19T11:44:51;10.20;;;9.05;;
45676;SDS011;31390;51.186;6.830;2022-08-19T11:47:19;10.30;;;9.23;;
45676;SDS011;31390;51.186;6.830;2022-08-19T11:49:46;10.82;;;7.93;;
45676;SDS011;31390;51.186;6.830;2022-08-19T11:52:14;13.23;;;8.65;;
45676;SDS011;31390;51.186;6.830;2022-08-19T11:54:40;10.60;;;9.68;;
45676;SDS011;31390;51.186;6.830;2022-08-19T11:57:07;10.55;;;8.27;;
45676;SDS011;31390;51.186;6.830;2022-08-19T11:59:34;9.65;;;8.75;;
45676;SDS011;31390;51.186;6.830;2022-08-19T12:02:00;9.55;;;8.07;;
45676;SDS011;31390;51.186;6.830;2022-08-19T12:04:27;9.20;;;7.78;;
45676;SDS011;31390;51.186;6.830;2022-08-19T12:06:54;8.55;;;7.70;;
45676;SDS011;31390;51.186;6.830;2022-08-19T12:09:21;7.13;;;5.10;;
45676;SDS011;31390;51.186;6.830;2022-08-19T12:11:48;7.25;;;5.80;;
45676;SDS011;31390;51.186;6.830;2022-08-19T12:14:15;6.50;;;5.85;;
45676;SDS011;31390;51.186;6.830;2022-08-19T12:16:44;7.45;;;6.68;;
45676;SDS011;31390;51.186;6.830;2022-08-19T12:19:17;8.13;;;7.32;;
45676;SDS011;31390;51.186;6.830;2022-08-19T12:21:50;11.43;;;8.48;;
45676;SDS011;31390;51.186;6.830;2022-08-19T12:24:17;9.95;;;8.50;;
45676;SDS011;31390;51.186;6.830;2022-08-19T12:26:50;8.30;;;7.50;;
45676;SDS011;31390;51.186;6.830;2022-08-19T12:29:19;8.50;;;7.70;;
45676;SDS011;31390;51.186;6.830;2022-08-19T12:31:51;7.82;;;7.18;;
45676;SDS011;31390;51.186;6.830;2022-08-19T12:34:18;8.05;;;7.25;;
45676;SDS011;31390;51.186;6.830;2022-08-19T12:36:47;9.15;;;8.25;;
45676;SDS011;31390;51.186;6.830;2022-08-19T12:39:15;11.18;;;8.25;;
45676;SDS011;31390;51.186;6.830;2022-08-19T12:41:49;11.35;;;7.40;;
45676;SDS011;31390;51.186;6.830;2022-08-19T12:44:36;8.63;;;7.63;;
45676;SDS011;31390;51.186;6.830;2022-08-19T12:47:07;9.32;;;5.82;;
45676;SDS011;31390;51.186;6.830;2022-08-19T12:49:37;8.18;;;6.78;;
45676;SDS011;31390;51.186;6.830;2022-08-19T12:52:22;7.30;;;6.60;;
45676;SDS011;31390;51.186;6.830;2022-08-19T12:54:58;8.55;;;6.45;;
45676;SDS011;31390;51.186;6.830;2022-08-19T12:57:27;6.60;;;5.03;;
45676;SDS011;31390;51.186;6.830;2022-08-19T13:00:03;6.35;;;5.50;;
45676;SDS011;31390;51.186;6.830;2022-08-19T13:02:33;7.47;;;5.78;;
45676;SDS011;31390;51.186;6.830;2022-08-19T13:05:05;8.38;;;5.80;;
45676;SDS011;31390;51.186;6.830;2022-08-19T13:07:33;5.97;;;5.38;;
45676;SDS011;31390;51.186;6.830;2022-08-19T13:10:04;5.55;;;4.70;;
45676;SDS011;31390;51.186;6.830;2022-08-19T13:12:31;5.97;;;4.93;;
45676;SDS011;31390;51.186;6.830;2022-08-19T13:14:59;7.55;;;6.43;;
45676;SDS011;31390;51.186;6.830;2022-08-19T13:17:28;6.45;;;5.78;;
45676;SDS011;31390;51.186;6.830;2022-08-19T13:19:58;5.80;;;5.20;;
45676;SDS011;31390;51.186;6.830;2022-08-19T13:22:29;6.85;;;5.05;;
45676;SDS011;31390;51.186;6.830;2022-08-19T13:24:58;7.65;;;5.35;;
45676;SDS011;31390;51.186;6.830;2022-08-19T13:27:25;6.45;;;4.63;;
45676;SDS011;31390;51.186;6.830;2022-08-19T13:29:52;5.88;;;4.97;;
45676;SDS011;31390;51.186;6.830;2022-08-19T13:32:37;7.45;;;4.82;;
45676;SDS011;31390;51.186;6.830;2022-08-19T13:35:22;7.47;;;4.55;;
45676;SDS011;31390;51.186;6.830;2022-08-19T13:37:50;6.85;;;4.70;;
45676;SDS011;31390;51.186;6.830;2022-08-19T13:40:22;5.10;;;4.60;;
45676;SDS011;31390;51.186;6.830;2022-08-19T13:42:51;7.65;;;4.93;;
45676;SDS011;31390;51.186;6.830;2022-08-19T13:45:19;4.80;;;4.40;;
45676;SDS011;31390;51.186;6.830;2022-08-19T13:47:47;6.90;;;4.80;;
45676;SDS011;31390;51.186;6.830;2022-08-19T13:50:16;7.32;;;4.60;;
45676;SDS011;31390;51.186;6.830;2022-08-19T13:52:43;5.38;;;4.25;;
45676;SDS011;31390;51.186;6.830;2022-08-19T13:55:11;5.05;;;4.50;;
45676;SDS011;31390;51.186;6.830;2022-08-19T13:57:38;6.15;;;4.68;;
45676;SDS011;31390;51.186;6.830;2022-08-19T14:00:07;7.55;;;4.70;;
45676;SDS011;31390;51.186;6.830;2022-08-19T14:02:41;7.63;;;4.75;;
45676;SDS011;31390;51.186;6.830;2022-08-19T14:05:10;5.28;;;4.70;;
45676;SDS011;31390;51.186;6.830;2022-08-19T14:07:37;7.10;;;4.80;;
45676;SDS011;31390;51.186;6.830;2022-08-19T14:10:04;4.90;;;4.28;;
45676;SDS011;31390;51.186;6.830;2022-08-19T14:12:32;5.95;;;4.40;;
45676;SDS011;31390;51.186;6.830;2022-08-19T14:15:02;4.88;;;4.43;;
45676;SDS011;31390;51.186;6.830;2022-08-19T14:17:31;6.22;;;4.40;;
45676;SDS011;31390;51.186;6.830;2022-08-19T14:20:00;6.40;;;4.20;;
45676;SDS011;31390;51.186;6.830;2022-08-19T14:22:37;4.13;;;3.72;;
45676;SDS011;31390;51.186;6.830;2022-08-19T14:25:08;4.38;;;3.97;;
45676;SDS011;31390;51.186;6.830;2022-08-19T14:27:37;4.60;;;3.53;;
45676;SDS011;31390;51.186;6.830;2022-08-19T14:30:05;3.80;;;3.40;;
45676;SDS011;31390;51.186;6.830;2022-08-19T14:32:33;8.38;;;4.38;;
45676;SDS011;31390;51.186;6.830;2022-08-19T14:35:00;4.97;;;3.30;;
45676;SDS011;31390;51.186;6.830;2022-08-19T14:37:27;4.32;;;3.28;;
45676;SDS011;31390;51.186;6.830;2022-08-19T14:39:56;4.32;;;3.70;;
45676;SDS011;31390;51.186;6.830;2022-08-19T14:42:24;4.22;;;3.03;;
45676;SDS011;31390;51.186;6.830;2022-08-19T14:44:52;5.60;;;3.45;;
45676;SDS011;31390;51.186;6.830;2022-08-19T14:47:18;3.78;;;3.13;;
45676;SDS011;31390;51.186;6.830;2022-08-19T14:49:49;3.47;;;2.80;;
45676;SDS011;31390;51.186;6.830;2022-08-19T14:52:17;3.42;;;3.13;;
45676;SDS011;31390;51.186;6.830;2022-08-19T14:54:47;3.13;;;2.88;;